Terminal Aerodrome Forecast
Issued by NWS

Home | Current Version | Previous Version | Graphics & Text | Print | Product List | Glossary Off
Versions: 1 2 3 4 5 6 7 8 9 10 11 12 13

000
FTUS45 KGGW 210500
TAFSDY
TAF
KSDY 210520Z 2106/2206 VRB03KT P6SM SCT170
     FM211100 VRB04KT P6SM VCSH BKN060
     FM220000 VRB06KT 5SM -SHRA BKN050
      AMD LTD TO CLD VIS AND WIND=

USA.gov is the U.S. government's official web portal to all federal, state and local government web resources and services.